Eldorado — WDE8374 — position and weather

sailwx.info

Track history (hours):
 
Tides and Currents Weather Stations Pressure Air Temp Water Temp Dewpoint Dewpoint Depression Visibility Wind Speed Wind Dir Waves Ship Positions

Eldorado

Owner: FUKUTO / REDLEW CHARTERS, INC., CYPRESS, CA. More information available from US FCC via Universal Licensing System and Coast Guard Vessel Documentation Center.

Last reported at 2018-Apr-22 16:56 UTC. Time now 2018-Apr-23 00:19 UTC.
Position N 33°18' W 119°37'.

Length 28 m; draft 2.5 m.

Type: Passenger vessel. MMSI: 367404740.

Date/timePositionNaut miles runAvg speedWind from/ knotsBaromVisibWave heightAir tempDewpointWater temp
2018-Apr-22 16:56N 33°18' W 119°37'1 2.1
2018-Apr-22 16:28N 33°18' W 119°38'1 1.2
2018-Apr-22 15:52N 33°17' W 119°39'0 1.0
2018-Apr-22 15:29N 33°17' W 119°38'1 1.9
2018-Apr-22 15:00N 33°17' W 119°37'0 0.4
2018-Apr-22 14:30N 33°17' W 119°37'1 1.9
2018-Apr-22 13:59N 33°18' W 119°38'1 2.2
2018-Apr-22 13:29N 33°17' W 119°37'1 2.9
2018-Apr-22 13:00N 33°18' W 119°36'4 7.7
2018-Apr-22 12:30N 33°19' W 119°31'4 8.2
2018-Apr-22 12:00N 33°20' W 119°27'4 8.3
2018-Apr-22 11:30N 33°22' W 119°22'4 8.5
2018-Apr-22 11:00N 33°23' W 119°17'4 8.4
2018-Apr-22 10:29N 33°24' W 119°12'4 8.4
2018-Apr-22 09:59N 33°26' W 119°07'4 9.2
2018-Apr-22 09:30N 33°27' W 119°02'5 9.1
2018-Apr-22 08:58N 33°29' W 118°57'4 9.3
2018-Apr-22 08:30N 33°31' W 118°52'5 9.0
2018-Apr-22 08:00N 33°32' W 118°47'4 8.8
2018-Apr-22 07:30N 33°34' W 118°42'4 8.4
2018-Apr-22 07:00N 33°35' W 118°37'4 8.3
2018-Apr-22 06:29N 33°37' W 118°33'14 8.8
2018-Apr-22 04:53N 33°41' W 118°17'3 7.2
2018-Apr-22 04:30N 33°43' W 118°14'3 6.7
2018-Apr-22 04:00N 33°46' W 118°13'0 0.1
2018-Apr-22 02:53N 33°46' W 118°13'3 7.3
2018-Apr-22 02:30N 33°44' W 118°14'2710.5
2018-Apr-21 23:57N 33°33' W 118°43'510.5
2018-Apr-21 23:30N 33°31' W 118°48'610.4
2018-Apr-21 22:58N 33°29' W 118°55'610.7
2018-Apr-21 22:24N 33°27' W 119°02'610.5
2018-Apr-21 21:50N 33°25' W 119°08'310.4
2018-Apr-21 21:30N 33°24' W 119°12'510.4
2018-Apr-21 21:00N 33°23' W 119°18'510.5
2018-Apr-21 20:30N 33°21' W 119°24'510.4
2018-Apr-21 20:00N 33°20' W 119°30'510.2
2018-Apr-21 19:30N 33°18' W 119°36'2 3.6
2018-Apr-21 18:59N 33°18' W 119°38'0 0.2
2018-Apr-21 18:29N 33°18' W 119°38'1 2.3
2018-Apr-21 18:00N 33°17' W 119°37'0 0.7
2018-Apr-21 17:28N 33°18' W 119°37'1 3.1
2018-Apr-21 17:00N 33°16' W 119°38'1 1.0
2018-Apr-21 16:30N 33°17' W 119°38'0 0.3
2018-Apr-21 16:00N 33°17' W 119°38'1 2.0
2018-Apr-21 15:30N 33°18' W 119°38'0 0.5
2018-Apr-21 14:56N 33°18' W 119°38'0 0.4
2018-Apr-21 14:30N 33°18' W 119°38'0 0.5
2018-Apr-21 14:00N 33°18' W 119°38'0 0.4
2018-Apr-21 13:30N 33°18' W 119°38'1 1.1
2018-Apr-21 13:00N 33°18' W 119°37'4 7.7
2018-Apr-21 12:30N 33°18' W 119°33'4 7.3
2018-Apr-21 12:00N 33°20' W 119°29'4 7.3
2018-Apr-21 11:30N 33°21' W 119°25'4 7.6
2018-Apr-21 11:00N 33°22' W 119°20'4 7.7
2018-Apr-21 10:30N 33°23' W 119°16'4 7.7
2018-Apr-21 10:00N 33°25' W 119°12'4 7.7
2018-Apr-21 09:30N 33°26' W 119°07'4 8.4
2018-Apr-21 09:00N 33°27' W 119°02'4 8.8
2018-Apr-21 08:30N 33°29' W 118°58'4 8.7
2018-Apr-21 08:00N 33°31' W 118°53'4 8.8
2018-Apr-21 07:30N 33°32' W 118°48'4 8.8
2018-Apr-21 07:00N 33°34' W 118°43'23 8.8
2018-Apr-21 04:23N 33°41' W 118°17'3 9.1
2018-Apr-21 04:00N 33°44' W 118°14'3 5.0
2018-Apr-21 03:25N 33°46' W 118°13'0 0.0
2018-Apr-21 02:39N 33°46' W 118°13'0 0.0
2018-Apr-21 02:30N 33°46' W 118°13'0 0.0
2018-Apr-21 02:00N 33°46' W 118°13'3 6.3
2018-Apr-21 01:30N 33°43' W 118°13'5 9.9
2018-Apr-21 01:00N 33°39' W 118°15'2010.5
2018-Apr-20 23:07N 33°19' W 118°18'23 1.2
2018-Apr-20 04:43N 33°42' W 118°16'2 9.3
2018-Apr-20 04:30N 33°43' W 118°14'4 7.1
2018-Apr-20 04:00N 33°46' W 118°13'0 0.0
2018-Apr-20 03:30N 33°46' W 118°13'0 0.0
2018-Apr-20 02:59N 33°46' W 118°13'0 0.0
2018-Apr-20 02:30N 33°46' W 118°13'0 0.0
2018-Apr-20 02:00N 33°46' W 118°13'0 0.0
2018-Apr-20 01:30N 33°46' W 118°13'0 0.0
2018-Apr-20 01:00N 33°46' W 118°13'0 0.0
2018-Apr-20 00:30N 33°46' W 118°13'0 0.0
2018-Apr-20 00:00N 33°46' W 118°13'0 0.0
2018-Apr-19 23:29N 33°46' W 118°13'3 6.1
2018-Apr-19 23:00N 33°44' W 118°14'2 4.6
2018-Apr-19 22:30N 33°44' W 118°17'1 1.4
2018-Apr-19 22:00N 33°43' W 118°16'3 6.6
2018-Apr-19 21:30N 33°45' W 118°13'  
2018-Apr-16 01:47N 32°44' W 117°20'2 0.1
2018-Apr-15 12:12N 32°43' W 117°21'210.6
2018-Apr-15 11:59N 32°44' W 117°22'510.5
2018-Apr-15 11:30N 32°49' W 117°26'510.3
2018-Apr-15 11:00N 32°53' W 117°29'510.2
2018-Apr-15 10:30N 32°57' W 117°33'510.1
2018-Apr-15 10:00N 33°01' W 117°36'510.3
2018-Apr-15 09:30N 33°06' W 117°40'510.2
2018-Apr-15 09:00N 33°10' W 117°43'510.2
2018-Apr-15 08:30N 33°14' W 117°46'510.1
2018-Apr-15 08:00N 33°18' W 117°50'5 9.8
2018-Apr-15 07:29N 33°22' W 117°53'5 9.7
2018-Apr-15 07:00N 33°26' W 117°56'510.0
2018-Apr-15 06:30N 33°30' W 117°60'16 9.6
2018-Apr-15 04:52N 33°43' W 118°11'3 8.5
2018-Apr-15 04:30N 33°45' W 118°13'1 0.8
2018-Apr-15 03:18N 33°46' W 118°13'0 0.0
2018-Apr-15 02:56N 33°46' W 118°13'0 0.0
2018-Apr-15 02:30N 33°46' W 118°13'3 6.8
2018-Apr-15 02:00N 33°43' W 118°14'3210.7
2018-Apr-14 22:59N 33°31' W 118°50'711.0
2018-Apr-14 22:21N 33°29' W 118°58'410.5
2018-Apr-14 22:00N 33°27' W 119°02'1610.9
2018-Apr-14 20:31N 33°22' W 119°21'0 9.8
2018-Apr-14 20:30N 33°22' W 119°21'1110.7
2018-Apr-14 19:29N 33°19' W 119°33'1 2.7
2018-Apr-14 18:57N 33°18' W 119°35'1 2.5
2018-Apr-14 18:28N 33°18' W 119°33'3 0.5
2018-Apr-14 12:25N 33°18' W 119°37'2 5.1
2018-Apr-14 12:00N 33°18' W 119°35'5 9.0
2018-Apr-14 11:28N 33°20' W 119°29'4 9.1
2018-Apr-14 11:00N 33°21' W 119°24'5 9.5
2018-Apr-14 10:30N 33°23' W 119°19'5 9.7
2018-Apr-14 10:00N 33°24' W 119°13'5 9.8
2018-Apr-14 09:30N 33°26' W 119°08'5 9.6
2018-Apr-14 09:00N 33°27' W 119°02'5 9.6
2018-Apr-14 08:29N 33°29' W 118°57'5 9.5
2018-Apr-14 07:58N 33°30' W 118°51'5 9.7
2018-Apr-14 07:29N 33°32' W 118°46'5 9.7
2018-Apr-14 06:55N 33°34' W 118°40'4 9.6
2018-Apr-14 06:30N 33°36' W 118°35'17 9.1
2018-Apr-14 04:41N 33°41' W 118°17'210.0
2018-Apr-14 04:30N 33°42' W 118°15'4 7.8
2018-Apr-14 04:00N 33°46' W 118°13'1 0.9
2018-Apr-14 03:22N 33°46' W 118°13'0 0.0
2018-Apr-14 02:31N 33°46' W 118°13'0 0.0
2018-Apr-14 02:30N 33°46' W 118°13'  
Track history (hours):
 
Tides and Currents Weather Stations Pressure Air Temp Water Temp Dewpoint Dewpoint Depression Visibility Wind Speed Wind Dir Waves Ship Positions

Eldorado

Owner: FUKUTO / REDLEW CHARTERS, INC., CYPRESS, CA. More information available from US FCC via Universal Licensing System and Coast Guard Vessel Documentation Center.

Last reported at 2018-Apr-22 16:56 UTC. Time now 2018-Apr-23 00:19 UTC.
Position N 33°18' W 119°37'.

Length 28 m; draft 2.5 m.

Type: Passenger vessel. MMSI: 367404740.

Date/timePositionNaut miles runAvg speedWind from/ knotsBaromVisibWave heightAir tempDewpointWater temp
2018-Apr-22 16:56N 33°18' W 119°37'1 2.1
2018-Apr-22 16:28N 33°18' W 119°38'1 1.2
2018-Apr-22 15:52N 33°17' W 119°39'0 1.0
2018-Apr-22 15:29N 33°17' W 119°38'1 1.9
2018-Apr-22 15:00N 33°17' W 119°37'0 0.4
2018-Apr-22 14:30N 33°17' W 119°37'1 1.9
2018-Apr-22 13:59N 33°18' W 119°38'1 2.2
2018-Apr-22 13:29N 33°17' W 119°37'1 2.9
2018-Apr-22 13:00N 33°18' W 119°36'4 7.7
2018-Apr-22 12:30N 33°19' W 119°31'4 8.2
2018-Apr-22 12:00N 33°20' W 119°27'4 8.3
2018-Apr-22 11:30N 33°22' W 119°22'4 8.5
2018-Apr-22 11:00N 33°23' W 119°17'4 8.4
2018-Apr-22 10:29N 33°24' W 119°12'4 8.4
2018-Apr-22 09:59N 33°26' W 119°07'4 9.2
2018-Apr-22 09:30N 33°27' W 119°02'5 9.1
2018-Apr-22 08:58N 33°29' W 118°57'4 9.3
2018-Apr-22 08:30N 33°31' W 118°52'5 9.0
2018-Apr-22 08:00N 33°32' W 118°47'4 8.8
2018-Apr-22 07:30N 33°34' W 118°42'4 8.4
2018-Apr-22 07:00N 33°35' W 118°37'4 8.3
2018-Apr-22 06:29N 33°37' W 118°33'14 8.8
2018-Apr-22 04:53N 33°41' W 118°17'3 7.2
2018-Apr-22 04:30N 33°43' W 118°14'3 6.7
2018-Apr-22 04:00N 33°46' W 118°13'0 0.1
2018-Apr-22 02:53N 33°46' W 118°13'3 7.3
2018-Apr-22 02:30N 33°44' W 118°14'2710.5
2018-Apr-21 23:57N 33°33' W 118°43'510.5
2018-Apr-21 23:30N 33°31' W 118°48'610.4
2018-Apr-21 22:58N 33°29' W 118°55'610.7
2018-Apr-21 22:24N 33°27' W 119°02'610.5
2018-Apr-21 21:50N 33°25' W 119°08'310.4
2018-Apr-21 21:30N 33°24' W 119°12'510.4
2018-Apr-21 21:00N 33°23' W 119°18'510.5
2018-Apr-21 20:30N 33°21' W 119°24'510.4
2018-Apr-21 20:00N 33°20' W 119°30'510.2
2018-Apr-21 19:30N 33°18' W 119°36'2 3.6
2018-Apr-21 18:59N 33°18' W 119°38'0 0.2
2018-Apr-21 18:29N 33°18' W 119°38'1 2.3
2018-Apr-21 18:00N 33°17' W 119°37'0 0.7
2018-Apr-21 17:28N 33°18' W 119°37'1 3.1
2018-Apr-21 17:00N 33°16' W 119°38'1 1.0
2018-Apr-21 16:30N 33°17' W 119°38'0 0.3
2018-Apr-21 16:00N 33°17' W 119°38'1 2.0
2018-Apr-21 15:30N 33°18' W 119°38'0 0.5
2018-Apr-21 14:56N 33°18' W 119°38'0 0.4
2018-Apr-21 14:30N 33°18' W 119°38'0 0.5
2018-Apr-21 14:00N 33°18' W 119°38'0 0.4
2018-Apr-21 13:30N 33°18' W 119°38'1 1.1
2018-Apr-21 13:00N 33°18' W 119°37'4 7.7
2018-Apr-21 12:30N 33°18' W 119°33'4 7.3
2018-Apr-21 12:00N 33°20' W 119°29'4 7.3
2018-Apr-21 11:30N 33°21' W 119°25'4 7.6
2018-Apr-21 11:00N 33°22' W 119°20'4 7.7
2018-Apr-21 10:30N 33°23' W 119°16'4 7.7
2018-Apr-21 10:00N 33°25' W 119°12'4 7.7
2018-Apr-21 09:30N 33°26' W 119°07'4 8.4
2018-Apr-21 09:00N 33°27' W 119°02'4 8.8
2018-Apr-21 08:30N 33°29' W 118°58'4 8.7
2018-Apr-21 08:00N 33°31' W 118°53'4 8.8
2018-Apr-21 07:30N 33°32' W 118°48'4 8.8
2018-Apr-21 07:00N 33°34' W 118°43'23 8.8
2018-Apr-21 04:23N 33°41' W 118°17'3 9.1
2018-Apr-21 04:00N 33°44' W 118°14'3 5.0
2018-Apr-21 03:25N 33°46' W 118°13'0 0.0
2018-Apr-21 02:39N 33°46' W 118°13'0 0.0
2018-Apr-21 02:30N 33°46' W 118°13'0 0.0
2018-Apr-21 02:00N 33°46' W 118°13'3 6.3
2018-Apr-21 01:30N 33°43' W 118°13'5 9.9
2018-Apr-21 01:00N 33°39' W 118°15'2010.5
2018-Apr-20 23:07N 33°19' W 118°18'23 1.2
2018-Apr-20 04:43N 33°42' W 118°16'2 9.3
2018-Apr-20 04:30N 33°43' W 118°14'4 7.1
2018-Apr-20 04:00N 33°46' W 118°13'0 0.0
2018-Apr-20 03:30N 33°46' W 118°13'0 0.0
2018-Apr-20 02:59N 33°46' W 118°13'0 0.0
2018-Apr-20 02:30N 33°46' W 118°13'0 0.0
2018-Apr-20 02:00N 33°46' W 118°13'0 0.0
2018-Apr-20 01:30N 33°46' W 118°13'0 0.0
2018-Apr-20 01:00N 33°46' W 118°13'0 0.0
2018-Apr-20 00:30N 33°46' W 118°13'0 0.0
2018-Apr-20 00:00N 33°46' W 118°13'0 0.0
2018-Apr-19 23:29N 33°46' W 118°13'3 6.1
2018-Apr-19 23:00N 33°44' W 118°14'2 4.6
2018-Apr-19 22:30N 33°44' W 118°17'1 1.4
2018-Apr-19 22:00N 33°43' W 118°16'3 6.6
2018-Apr-19 21:30N 33°45' W 118°13'  
2018-Apr-16 01:47N 32°44' W 117°20'2 0.1
2018-Apr-15 12:12N 32°43' W 117°21'210.6
2018-Apr-15 11:59N 32°44' W 117°22'510.5
2018-Apr-15 11:30N 32°49' W 117°26'510.3
2018-Apr-15 11:00N 32°53' W 117°29'510.2
2018-Apr-15 10:30N 32°57' W 117°33'510.1
2018-Apr-15 10:00N 33°01' W 117°36'510.3
2018-Apr-15 09:30N 33°06' W 117°40'510.2
2018-Apr-15 09:00N 33°10' W 117°43'510.2
2018-Apr-15 08:30N 33°14' W 117°46'510.1
2018-Apr-15 08:00N 33°18' W 117°50'5 9.8
2018-Apr-15 07:29N 33°22' W 117°53'5 9.7
2018-Apr-15 07:00N 33°26' W 117°56'510.0
2018-Apr-15 06:30N 33°30' W 117°60'16 9.6
2018-Apr-15 04:52N 33°43' W 118°11'3 8.5
2018-Apr-15 04:30N 33°45' W 118°13'1 0.8
2018-Apr-15 03:18N 33°46' W 118°13'0 0.0
2018-Apr-15 02:56N 33°46' W 118°13'0 0.0
2018-Apr-15 02:30N 33°46' W 118°13'3 6.8
2018-Apr-15 02:00N 33°43' W 118°14'3210.7
2018-Apr-14 22:59N 33°31' W 118°50'711.0
2018-Apr-14 22:21N 33°29' W 118°58'410.5
2018-Apr-14 22:00N 33°27' W 119°02'1610.9
2018-Apr-14 20:31N 33°22' W 119°21'0 9.8
2018-Apr-14 20:30N 33°22' W 119°21'1110.7
2018-Apr-14 19:29N 33°19' W 119°33'1 2.7
2018-Apr-14 18:57N 33°18' W 119°35'1 2.5
2018-Apr-14 18:28N 33°18' W 119°33'3 0.5
2018-Apr-14 12:25N 33°18' W 119°37'2 5.1
2018-Apr-14 12:00N 33°18' W 119°35'5 9.0
2018-Apr-14 11:28N 33°20' W 119°29'4 9.1
2018-Apr-14 11:00N 33°21' W 119°24'5 9.5
2018-Apr-14 10:30N 33°23' W 119°19'5 9.7
2018-Apr-14 10:00N 33°24' W 119°13'5 9.8
2018-Apr-14 09:30N 33°26' W 119°08'5 9.6
2018-Apr-14 09:00N 33°27' W 119°02'5 9.6
2018-Apr-14 08:29N 33°29' W 118°57'5 9.5
2018-Apr-14 07:58N 33°30' W 118°51'5 9.7
2018-Apr-14 07:29N 33°32' W 118°46'5 9.7
2018-Apr-14 06:55N 33°34' W 118°40'4 9.6
2018-Apr-14 06:30N 33°36' W 118°35'17 9.1
2018-Apr-14 04:41N 33°41' W 118°17'210.0
2018-Apr-14 04:30N 33°42' W 118°15'4 7.8
2018-Apr-14 04:00N 33°46' W 118°13'1 0.9
2018-Apr-14 03:22N 33°46' W 118°13'0 0.0
2018-Apr-14 02:31N 33°46' W 118°13'0 0.0
2018-Apr-14 02:30N 33°46' W 118°13'  

Dump ship's entire track history